Time;durP1;ratioP1;P1;durP2;ratioP2;P2;SDS_P1;SDS_P2;PMS_P1;PMS_P2;Temp;Humidity;BMP_temperature;BMP_pressure;BME280_temperature;BME280_humidity;BME280_pressure;Samples;Min_cycle;Max_cycle;Signal;HPM_P1;HPM_P2
2022/09/25 00:00:49;;;;;;;11.33;10.13;;;;;21.00;100297.00;;;;2070966;28;20233;-54
2022/09/25 00:01:49;;;;;;;10.95;9.85;;;;;21.00;100296.00;;;;2070727;28;20221;-54
2022/09/25 00:02:49;;;;;;;10.87;9.77;;;;;21.00;100297.00;;;;2070331;28;20215;-54
2022/09/25 00:03:50;;;;;;;11.23;10.03;;;;;21.00;100300.00;;;;2073127;28;20288;-54
2022/09/25 00:04:50;;;;;;;11.10;9.90;;;;;21.00;100295.00;;;;2079013;28;20310;-54
2022/09/25 00:05:51;;;;;;;10.17;9.00;;;;;21.00;100303.00;;;;2078835;28;20729;-54
2022/09/25 00:06:51;;;;;;;10.77;9.60;;;;;21.00;100293.00;;;;2078989;28;20217;-54
2022/09/25 00:07:51;;;;;;;10.63;9.53;;;;;21.00;100298.00;;;;2077990;28;20218;-54
2022/09/25 00:08:52;;;;;;;9.40;8.37;;;;;21.00;100290.00;;;;2078835;28;20237;-54
2022/09/25 00:09:52;;;;;;;9.80;8.80;;;;;21.00;100295.00;;;;2078988;28;20218;-54
2022/09/25 00:10:52;;;;;;;10.10;9.10;;;;;21.00;100293.00;;;;2079374;28;20209;-54
2022/09/25 00:11:53;;;;;;;10.50;9.13;;;;;21.00;100295.00;;;;2079060;28;20248;-54
2022/09/25 00:12:53;;;;;;;10.90;9.80;;;;;21.00;100292.00;;;;2079328;28;20221;-54
2022/09/25 00:13:54;;;;;;;9.90;8.90;;;;;21.00;100294.00;;;;2079114;28;20218;-54
2022/09/25 00:14:54;;;;;;;11.47;8.90;;;;;21.00;100298.00;;;;2078815;28;20216;-54
2022/09/25 00:15:55;;;;;;;10.67;8.60;;;;;21.00;100304.00;;;;2078889;28;21006;-54
2022/09/25 00:16:55;;;;;;;9.73;8.77;;;;;21.00;100309.00;;;;2072697;28;20244;-54
2022/09/25 00:17:56;;;;;;;9.33;8.43;;;;;21.00;100299.00;;;;2069730;28;20591;-54
2022/09/25 00:20:16;;;;;;;9.50;8.35;;;;;21.00;100303.00;;;;2070961;28;20210;-55
2022/09/25 00:21:16;;;;;;;8.20;7.40;;;;;20.90;100293.00;;;;2071259;28;20214;-55
2022/09/25 00:22:17;;;;;;;8.77;7.87;;;;;20.90;100299.00;;;;2071222;28;20464;-55
2022/09/25 00:23:18;;;;;;;8.88;7.93;;;;;20.90;100297.00;;;;2070146;28;20536;-54
2022/09/25 00:24:18;;;;;;;9.13;7.73;;;;;20.50;100296.00;;;;2070161;28;20249;-54
2022/09/25 00:25:19;;;;;;;7.87;7.07;;;;;20.90;100302.00;;;;2070162;28;20214;-54
2022/09/25 00:26:19;;;;;;;7.90;7.00;;;;;20.90;100297.00;;;;2069480;28;20207;-54
2022/09/25 00:27:19;;;;;;;9.20;7.70;;;;;20.90;100296.00;;;;2071307;28;20913;-54
2022/09/25 00:28:20;;;;;;;8.63;7.73;;;;;20.90;100293.00;;;;2077280;28;20701;-54
2022/09/25 00:29:20;;;;;;;7.67;6.87;;;;;20.90;100299.00;;;;2078213;28;20763;-53
2022/09/25 00:30:21;;;;;;;8.03;6.97;;;;;20.90;100293.00;;;;2078026;28;20213;-54
2022/09/25 00:31:23;;;;;;;7.97;7.13;;;;;20.90;100298.00;;;;2078374;28;20249;-54
2022/09/25 00:32:23;;;;;;;7.20;6.57;;;;;20.90;100299.00;;;;2078410;28;20292;-54
2022/09/25 00:33:24;;;;;;;7.70;6.83;;;;;20.90;100296.00;;;;2078324;28;20236;-54
2022/09/25 00:34:24;;;;;;;10.60;7.13;;;;;20.90;100297.00;;;;2078976;28;20212;-54
2022/09/25 00:35:24;;;;;;;8.83;7.63;;;;;20.90;100303.00;;;;2078658;28;20205;-54
2022/09/25 00:36:25;;;;;;;7.90;7.10;;;;;20.90;100294.00;;;;2079058;28;20202;-54
2022/09/25 00:37:27;;;;;;;6.73;6.03;;;;;20.90;100299.00;;;;2076847;28;20213;-54
2022/09/25 00:38:27;;;;;;;7.35;6.65;;;;;20.90;100304.00;;;;2077805;28;20240;-54
2022/09/25 00:39:28;;;;;;;8.63;6.57;;;;;20.90;100296.00;;;;2078878;28;20646;-54
2022/09/25 00:40:28;;;;;;;7.80;6.63;;;;;20.90;100294.00;;;;2078487;28;20714;-54
2022/09/25 00:41:30;;;;;;;7.60;6.40;;;;;20.90;100291.00;;;;2078577;28;20762;-54
2022/09/25 00:42:31;;;;;;;6.97;6.25;;;;;20.90;100302.00;;;;2078624;28;20770;-54
2022/09/25 00:43:45;;;;;;;9.40;7.00;;;;;20.90;100296.00;;;;2078792;28;20267;-54
2022/09/25 00:44:55;;;;;;;6.93;6.22;;;;;20.90;100300.00;;;;2078901;28;20209;-54
2022/09/25 00:45:55;;;;;;;7.15;5.95;;;;;20.90;100304.00;;;;2078343;28;20700;-54
2022/09/25 00:46:55;;;;;;;8.17;6.53;;;;;20.90;100298.00;;;;2079006;28;20206;-54
2022/09/25 00:48:00;;;;;;;7.33;6.10;;;;;20.90;100296.00;;;;2077446;28;20233;-54
2022/09/25 00:49:21;;;;;;;7.00;6.07;;;;;20.80;100296.00;;;;2069730;28;20214;-54
2022/09/25 00:50:25;;;;;;;7.20;6.03;;;;;20.40;100298.00;;;;2075422;28;20209;-54
2022/09/25 00:51:39;;;;;;;6.53;5.82;;;;;20.90;100303.00;;;;2078204;28;20209;-54
2022/09/25 00:52:40;;;;;;;7.32;5.75;;;;;20.90;100303.00;;;;2073975;28;20222;-54
2022/09/25 00:53:40;;;;;;;6.80;5.40;;;;;20.90;100297.00;;;;2061871;28;20270;-54
2022/09/25 00:54:46;;;;;;;7.00;5.77;;;;;20.90;100270.00;;;;2063497;28;20723;-53
2022/09/25 00:55:46;;;;;;;6.32;5.30;;;;;20.90;100284.00;;;;2066091;28;20301;-57
2022/09/25 00:56:47;;;;;;;8.90;5.90;;;;;20.90;100291.00;;;;2057984;28;20722;-53
2022/09/25 00:57:48;;;;;;;7.80;5.82;;;;;20.90;100298.00;;;;2067200;28;20225;-58
2022/09/25 00:58:48;;;;;;;5.93;5.33;;;;;20.90;100305.00;;;;2067623;28;20238;-57
2022/09/25 00:59:50;;;;;;;6.77;4.70;;;;;20.90;100301.00;;;;2073271;28;20241;-54
2022/09/25 01:00:50;;;;;;;5.55;5.05;;;;;20.80;100300.00;;;;2060880;28;20246;-53
2022/09/25 01:01:51;;;;;;;6.70;5.70;;;;;20.80;100305.00;;;;2069910;28;20676;-54
2022/09/25 01:02:52;;;;;;;7.13;5.70;;;;;20.90;100299.00;;;;2077991;28;20264;-54
2022/09/25 01:03:54;;;;;;;6.38;5.53;;;;;20.90;100306.00;;;;2066381;28;20229;-53
2022/09/25 01:04:56;;;;;;;5.75;5.15;;;;;20.80;100294.00;;;;2069606;28;20304;-53
2022/09/25 01:05:59;;;;;;;5.53;4.97;;;;;20.90;100298.00;;;;2067471;28;20218;-53
2022/09/25 01:06:59;;;;;;;6.20;5.13;;;;;20.90;100300.00;;;;2064988;28;20220;-54
2022/09/25 01:08:00;;;;;;;5.10;4.70;;;;;20.90;100296.00;;;;2068153;28;20230;-53
2022/09/25 01:09:00;;;;;;;5.90;4.83;;;;;20.40;100299.00;;;;2060837;28;20483;-54
2022/09/25 01:10:01;;;;;;;5.20;4.70;;;;;20.80;100308.00;;;;2061792;28;20466;-53
2022/09/25 01:11:01;;;;;;;5.43;4.77;;;;;20.80;100299.00;;;;2068262;28;20218;-54
2022/09/25 01:12:02;;;;;;;6.50;5.33;;;;;20.80;100299.00;;;;2074924;28;20220;-54
2022/09/25 01:13:02;;;;;;;7.03;4.80;;;;;20.80;100303.00;;;;2077598;28;20275;-54
2022/09/25 01:14:04;;;;;;;5.80;4.83;;;;;20.80;100298.00;;;;2073495;28;20750;-54
2022/09/25 01:15:06;;;;;;;4.63;4.20;;;;;20.80;100300.00;;;;2063907;28;20225;-54
2022/09/25 01:16:16;;;;;;;7.10;4.80;;;;;20.80;100310.00;;;;2062391;28;20297;-58
2022/09/25 01:17:28;;;;;;;5.63;4.80;;;;;20.80;100285.00;;;;2066070;28;20246;-53
2022/09/25 01:18:53;;;;;;;6.38;5.00;;;;;20.80;100305.00;;;;2064746;28;20607;-54
2022/09/25 01:20:09;;;;;;;7.53;5.35;;;;;20.80;100308.00;;;;2064285;28;20268;-54
2022/09/25 01:21:24;;;;;;;5.55;4.65;;;;;20.80;100313.00;;;;2063815;28;20606;-54
2022/09/25 01:22:50;;;;;;;5.47;4.45;;;;;20.80;100310.00;;;;2076094;28;20227;-54
2022/09/25 01:24:05;;;;;;;5.70;4.15;;;;;20.80;100305.00;;;;2077143;28;20230;-54
2022/09/25 01:25:27;;;;;;;5.20;4.10;;;;;20.80;100302.00;;;;2077220;28;20352;-54
2022/09/25 01:26:46;;;;;;;5.05;4.30;;;;;20.80;100300.00;;;;2076651;28;20317;-54
2022/09/25 01:27:59;;;;;;;5.03;4.30;;;;;20.80;100303.00;;;;2075748;28;20251;-54
2022/09/25 01:29:08;;;;;;;5.35;4.38;;;;;20.80;100301.00;;;;2072181;28;20218;-54
2022/09/25 01:30:13;;;;;;;4.75;3.92;;;;;20.80;100318.00;;;;2077763;28;20248;-54
2022/09/25 01:32:01;;;;;;;4.32;3.92;;;;;20.80;100308.00;;;;2068935;28;20294;-53
2022/09/25 01:33:05;;;;;;;6.55;4.63;;;;;20.80;100301.00;;;;2074966;28;20584;-54
2022/09/25 01:34:17;;;;;;;5.10;3.63;;;;;20.80;100305.00;;;;2077197;28;20221;-54
2022/09/25 01:35:34;;;;;;;5.55;4.20;;;;;20.80;100303.00;;;;2076069;28;20225;-54
2022/09/25 01:36:36;;;;;;;4.30;3.90;;;;;20.80;100306.00;;;;2071241;28;20213;-54
2022/09/25 01:37:52;;;;;;;5.68;4.22;;;;;20.80;100308.00;;;;2067402;28;20217;-54
2022/09/25 01:38:56;;;;;;;4.82;3.60;;;;;20.80;100307.00;;;;2062099;28;20381;-54
2022/09/25 01:40:04;;;;;;;4.50;3.30;;;;;20.70;100308.00;;;;2060766;28;20227;-54
2022/09/25 01:41:26;;;;;;;4.70;3.90;;;;;20.80;100299.00;;;;2068945;28;20236;-54
2022/09/25 01:42:29;;;;;;;6.22;3.90;;;;;20.70;100318.00;;;;2067887;28;20703;-53
2022/09/25 01:43:50;;;;;;;6.22;3.40;;;;;20.80;100310.00;;;;2054104;28;20216;-54
2022/09/25 01:44:57;;;;;;;3.97;3.33;;;;;20.70;100293.00;;;;2071447;28;20218;-54
2022/09/25 01:46:07;;;;;;;5.57;4.25;;;;;20.80;100315.00;;;;2058570;28;20218;-54
2022/09/25 01:47:11;;;;;;;4.30;3.20;;;;;20.70;100306.00;;;;2070912;28;20225;-54
2022/09/25 01:48:12;;;;;;;5.15;3.50;;;;;20.80;100319.00;;;;2075209;28;20958;-53
2022/09/25 01:49:24;;;;;;;4.30;3.43;;;;;20.80;100299.00;;;;2074001;28;20244;-53
2022/09/25 01:50:27;;;;;;;3.25;2.90;;;;;20.70;100319.00;;;;2065642;28;20453;-54
2022/09/25 01:51:34;;;;;;;5.70;3.40;;;;;20.70;100296.00;;;;2061170;28;20694;-54
2022/09/25 01:52:39;;;;;;;6.20;3.85;;;;;20.70;100314.00;;;;2053920;28;20227;-54
2022/09/25 01:53:43;;;;;;;6.78;3.10;;;;;20.70;100317.00;;;;2069723;28;20617;-54
2022/09/25 01:54:45;;;;;;;3.33;2.80;;;;;20.70;100312.00;;;;2077205;28;20221;-54
2022/09/25 01:55:47;;;;;;;4.53;3.13;;;;;20.70;100322.00;;;;2068261;28;20226;-54
2022/09/25 01:56:54;;;;;;;4.70;3.17;;;;;20.70;100320.00;;;;2068977;28;20218;-54
2022/09/25 01:58:09;;;;;;;4.20;3.60;;;;;20.70;100185.00;;;;2075045;28;20221;-54
2022/09/25 01:59:15;;;;;;;5.15;3.45;;;;;20.70;100330.00;;;;2076321;28;20673;-54
2022/09/25 02:00:18;;;;;;;5.68;4.00;;;;;20.70;100339.00;;;;2069091;28;20307;-53
2022/09/25 02:01:22;;;;;;;3.97;3.15;;;;;20.70;100318.00;;;;2068504;28;20225;-54
2022/09/25 02:02:26;;;;;;;3.70;3.22;;;;;20.70;100309.00;;;;2068638;28;20609;-55
2022/09/25 02:03:45;;;;;;;3.88;3.08;;;;;20.80;100318.00;;;;2068672;28;20275;-54
2022/09/25 02:04:51;;;;;;;4.25;3.28;;;;;20.70;100312.00;;;;2062567;28;20714;-54
2022/09/25 02:05:53;;;;;;;3.10;2.80;;;;;20.70;100308.00;;;;2053578;28;20626;-54
2022/09/25 02:06:54;;;;;;;4.10;2.63;;;;;20.70;100310.00;;;;2077240;28;20218;-54
2022/09/25 02:07:59;;;;;;;3.25;2.95;;;;;20.70;100299.00;;;;2080578;28;20591;-54
2022/09/25 02:09:06;;;;;;;3.35;3.05;;;;;20.70;100315.00;;;;2068524;28;20296;-55
2022/09/25 02:10:08;;;;;;;4.35;2.90;;;;;20.70;100308.00;;;;2070252;28;20687;-54
2022/09/25 02:11:08;;;;;;;4.65;3.08;;;;;20.70;100286.00;;;;2060699;28;20215;-54
2022/09/25 02:12:20;;;;;;;4.03;3.07;;;;;20.70;100313.00;;;;2052779;28;20219;-54
2022/09/25 02:13:21;;;;;;;3.80;2.80;;;;;20.70;100291.00;;;;2058700;28;20563;-54
2022/09/25 02:14:25;;;;;;;3.63;2.90;;;;;20.70;100324.00;;;;2060980;28;20254;-53
2022/09/25 02:15:33;;;;;;;3.85;2.83;;;;;20.70;100310.00;;;;2075816;28;20260;-54
2022/09/25 02:16:37;;;;;;;2.97;2.30;;;;;20.70;100300.00;;;;2069084;28;20210;-54
2022/09/25 02:20:35;;;;;;;4.55;3.00;;;;;20.70;100305.00;;;;2068065;28;20218;-54
2022/09/25 02:21:53;;;;;;;4.90;2.83;;;;;20.70;100304.00;;;;2071267;28;20609;-54
2022/09/25 02:22:53;;;;;;;6.13;3.40;;;;;20.70;100304.00;;;;2068789;28;20218;-54
2022/09/25 02:24:11;;;;;;;3.10;2.60;;;;;20.70;100304.00;;;;2061841;28;20305;-54
2022/09/25 02:25:16;;;;;;;3.00;2.40;;;;;20.70;100308.00;;;;2069710;28;20214;-54
2022/09/25 02:26:27;;;;;;;3.55;2.63;;;;;20.70;100304.00;;;;2063899;28;20349;-54
2022/09/25 02:27:28;;;;;;;4.30;2.85;;;;;20.70;100299.00;;;;2070028;28;20222;-54
2022/09/25 02:28:28;;;;;;;2.80;2.38;;;;;20.70;100304.00;;;;2079127;28;20237;-54
2022/09/25 02:29:28;;;;;;;3.60;2.43;;;;;20.70;100312.00;;;;2078126;28;20908;-54
2022/09/25 02:30:29;;;;;;;3.83;2.30;;;;;20.70;100306.00;;;;2078185;28;20966;-54
2022/09/25 02:31:34;;;;;;;3.20;2.63;;;;;20.70;100310.00;;;;2078154;28;20718;-53
2022/09/25 02:32:34;;;;;;;3.75;2.35;;;;;20.70;100310.00;;;;2062377;28;20237;-54
2022/09/25 02:33:35;;;;;;;3.47;2.00;;;;;20.70;100309.00;;;;2062378;28;20234;-54
2022/09/25 02:34:35;;;;;;;3.57;2.30;;;;;20.70;100309.00;;;;2070850;28;20272;-53
2022/09/25 02:35:36;;;;;;;3.30;2.67;;;;;20.70;100311.00;;;;2071013;28;20210;-54
2022/09/25 02:36:36;;;;;;;2.97;2.20;;;;;20.70;100304.00;;;;2078125;28;20575;-53
2022/09/25 02:37:36;;;;;;;3.87;2.40;;;;;20.70;100316.00;;;;2077460;28;20625;-54
2022/09/25 02:38:37;;;;;;;3.13;2.30;;;;;20.70;100315.00;;;;2078962;28;20688;-54
2022/09/25 02:39:37;;;;;;;3.40;2.40;;;;;20.70;100313.00;;;;2076401;28;20628;-54
2022/09/25 02:40:45;;;;;;;3.07;2.20;;;;;20.70;100284.00;;;;2070816;28;20582;-54
2022/09/25 02:42:07;;;;;;;5.15;2.20;;;;;20.70;100314.00;;;;2066727;28;20216;-55
2022/09/25 02:43:39;;;;;;;2.83;2.10;;;;;20.60;100316.00;;;;2073144;28;20771;-54
2022/09/25 02:45:07;;;;;;;4.30;1.80;;;;;20.70;100311.00;;;;2074025;28;20210;-53
2022/09/25 02:46:19;;;;;;;4.70;2.72;;;;;20.70;100299.00;;;;2073156;28;20217;-53
2022/09/25 02:47:27;;;;;;;3.60;2.10;;;;;20.70;100312.00;;;;2077010;28;20218;-54
2022/09/25 02:48:34;;;;;;;4.53;1.95;;;;;20.60;100312.00;;;;2071262;28;20737;-53
2022/09/25 02:49:59;;;;;;;3.15;1.90;;;;;20.70;100317.00;;;;2061188;28;20888;-55
2022/09/25 02:51:28;;;;;;;3.10;1.88;;;;;20.60;100313.00;;;;2072824;28;20300;-54
2022/09/25 02:52:45;;;;;;;2.65;2.10;;;;;20.60;100311.00;;;;2070406;28;20870;-54
2022/09/25 02:53:47;;;;;;;3.05;1.83;;;;;20.60;100312.00;;;;2077747;28;20652;-53
2022/09/25 02:55:07;;;;;;;2.75;1.95;;;;;20.60;100311.00;;;;2070068;28;20218;-54
2022/09/25 02:56:17;;;;;;;3.85;2.28;;;;;20.60;100308.00;;;;2066531;28;20217;-54
2022/09/25 02:57:26;;;;;;;2.55;1.80;;;;;20.60;100313.00;;;;2070409;28;20210;-54
2022/09/25 02:58:28;;;;;;;4.18;2.30;;;;;20.60;100309.00;;;;2070755;28;20242;-54
2022/09/25 02:59:34;;;;;;;2.58;1.83;;;;;20.60;100311.00;;;;2069466;28;20222;-54
2022/09/25 03:00:36;;;;;;;5.60;2.83;;;;;20.60;100316.00;;;;2070485;28;20372;-54
2022/09/25 03:01:37;;;;;;;5.28;2.20;;;;;20.60;100318.00;;;;2069292;28;20214;-57
2022/09/25 03:02:37;;;;;;;2.20;1.77;;;;;20.60;100309.00;;;;2053975;28;20696;-54
2022/09/25 03:03:37;;;;;;;2.60;1.70;;;;;20.60;100318.00;;;;2069962;28;20210;-55
2022/09/25 03:04:38;;;;;;;3.57;2.40;;;;;20.60;100308.00;;;;2061801;28;20583;-55
2022/09/25 03:05:38;;;;;;;3.13;2.03;;;;;20.60;100316.00;;;;2059004;28;20364;-55
2022/09/25 03:06:38;;;;;;;4.13;2.00;;;;;20.60;100314.00;;;;2059965;28;20215;-54
2022/09/25 03:08:57;;;;;;;2.10;1.58;;;;;20.60;100313.00;;;;2054891;28;20323;-54
2022/09/25 03:09:58;;;;;;;4.20;1.90;;;;;20.60;100315.00;;;;2068631;28;20222;-53
2022/09/25 03:10:58;;;;;;;3.70;2.03;;;;;20.60;100312.00;;;;2061574;28;20215;-54
2022/09/25 03:12:05;;;;;;;4.90;2.00;;;;;20.40;100313.00;;;;2075210;28;20240;-53
2022/09/25 03:13:13;;;;;;;2.95;1.73;;;;;20.60;100314.00;;;;2077784;28;20296;-54
2022/09/25 03:14:14;;;;;;;2.10;1.45;;;;;20.60;100315.00;;;;2077799;28;20218;-54
2022/09/25 03:15:14;;;;;;;4.00;1.83;;;;;20.60;100315.00;;;;2078419;28;20253;-55
2022/09/25 03:16:22;;;;;;;4.80;1.90;;;;;20.60;100314.00;;;;2078451;28;20210;-54
2022/09/25 03:17:23;;;;;;;2.17;1.63;;;;;20.60;100310.00;;;;2068471;28;20311;-54
2022/09/25 03:18:24;;;;;;;5.40;1.90;;;;;20.60;100323.00;;;;2070016;28;20241;-55
2022/09/25 03:19:26;;;;;;;4.70;2.17;;;;;20.70;100315.00;;;;2084991;28;20514;-53
2022/09/25 03:20:27;;;;;;;3.22;1.90;;;;;20.60;100319.00;;;;2078044;28;20224;-54
2022/09/25 03:21:27;;;;;;;2.80;1.67;;;;;20.60;100321.00;;;;2078264;28;20682;-54
2022/09/25 03:22:27;;;;;;;5.00;1.77;;;;;20.60;100323.00;;;;2077955;28;20846;-54
2022/09/25 03:23:28;;;;;;;2.83;1.43;;;;;20.60;100319.00;;;;2077906;28;20256;-53
2022/09/25 03:24:28;;;;;;;2.87;1.77;;;;;20.60;100316.00;;;;2077986;28;20300;-53
2022/09/25 03:25:28;;;;;;;3.07;1.70;;;;;20.60;100316.00;;;;2076917;28;20205;-53
2022/09/25 03:26:29;;;;;;;2.50;1.40;;;;;20.60;100317.00;;;;2077357;28;20346;-53
2022/09/25 03:27:29;;;;;;;2.63;1.93;;;;;20.60;100301.00;;;;2076857;28;20224;-53
2022/09/25 03:28:29;;;;;;;2.27;1.50;;;;;20.30;100322.00;;;;2069731;28;20229;-54
2022/09/25 03:29:30;;;;;;;1.80;1.30;;;;;20.60;100316.00;;;;2070941;28;20900;-54
2022/09/25 03:30:30;;;;;;;2.10;1.60;;;;;20.60;100319.00;;;;2070703;28;20755;-54
2022/09/25 03:31:31;;;;;;;3.03;1.67;;;;;20.60;100318.00;;;;2070233;28;20635;-53
2022/09/25 03:32:31;;;;;;;2.37;1.50;;;;;20.60;100321.00;;;;2070488;28;20938;-53
2022/09/25 03:33:39;;;;;;;4.47;1.83;;;;;20.60;100311.00;;;;2070304;28;20957;-52
2022/09/25 03:34:39;;;;;;;3.92;1.50;;;;;20.60;100310.00;;;;2070026;28;20214;-54
2022/09/25 03:35:40;;;;;;;2.37;1.33;;;;;20.60;100316.00;;;;2069903;28;20871;-54
2022/09/25 03:36:40;;;;;;;3.77;1.40;;;;;20.60;100311.00;;;;2075253;28;20889;-54
2022/09/25 03:37:40;;;;;;;3.57;1.67;;;;;20.60;100311.00;;;;2076261;28;20728;-53
2022/09/25 03:38:41;;;;;;;3.17;1.63;;;;;20.60;100307.00;;;;2078403;28;20221;-54
2022/09/25 03:39:41;;;;;;;3.60;1.67;;;;;20.60;100316.00;;;;2078308;28;20240;-53
2022/09/25 03:40:42;;;;;;;2.93;1.60;;;;;20.60;100312.00;;;;2077786;28;20732;-59
2022/09/25 03:41:43;;;;;;;5.40;1.50;;;;;20.60;100304.00;;;;2078683;28;20296;-55
2022/09/25 03:42:44;;;;;;;1.40;1.30;;;;;20.10;100315.00;;;;2078347;28;20471;-53
2022/09/25 03:43:45;;;;;;;4.77;1.70;;;;;20.60;100317.00;;;;2078498;28;20471;-53
2022/09/25 03:44:45;;;;;;;1.45;1.20;;;;;20.60;100291.00;;;;2078012;28;20272;-53
2022/09/25 03:45:46;;;;;;;3.60;1.70;;;;;20.60;100308.00;;;;2076025;28;20644;-53
2022/09/25 03:46:46;;;;;;;3.60;1.60;;;;;20.60;100287.00;;;;2070527;28;20225;-53
2022/09/25 03:47:46;;;;;;;3.27;1.50;;;;;20.60;100310.00;;;;2068524;28;20211;-53
2022/09/25 03:48:47;;;;;;;2.90;1.40;;;;;20.60;100310.00;;;;2070274;28;20315;-53
2022/09/25 03:49:47;;;;;;;5.07;1.80;;;;;20.60;100307.00;;;;2072480;28;20233;-54
2022/09/25 03:50:49;;;;;;;2.87;1.53;;;;;20.60;100307.00;;;;2078356;28;20213;-55
2022/09/25 03:51:49;;;;;;;1.50;1.17;;;;;20.60;100303.00;;;;2078301;28;20216;-54
2022/09/25 03:52:49;;;;;;;2.00;1.20;;;;;20.60;100299.00;;;;2070233;28;20215;-55
2022/09/25 03:53:50;;;;;;;3.20;1.70;;;;;20.60;100306.00;;;;2069981;28;20228;-53
2022/09/25 03:54:50;;;;;;;2.67;1.30;;;;;20.60;100307.00;;;;2070046;28;20296;-54
2022/09/25 03:55:51;;;;;;;3.23;1.37;;;;;20.60;100308.00;;;;2070146;28;20272;-54
2022/09/25 03:56:51;;;;;;;1.63;1.23;;;;;20.60;100303.00;;;;2070182;28;20217;-54
2022/09/25 03:57:52;;;;;;;2.20;1.30;;;;;20.60;100320.00;;;;2068883;28;20257;-54
2022/09/25 03:58:53;;;;;;;4.13;1.70;;;;;20.60;100314.00;;;;2072494;28;20222;-54
2022/09/25 03:59:53;;;;;;;2.58;1.60;;;;;20.60;100314.00;;;;2078044;28;20241;-54
2022/09/25 04:00:56;;;;;;;3.07;1.60;;;;;20.50;100312.00;;;;2077030;28;20699;-54
2022/09/25 04:01:57;;;;;;;1.90;1.30;;;;;20.60;100311.00;;;;2070083;28;20210;-54
2022/09/25 04:02:58;;;;;;;2.17;1.60;;;;;20.50;100310.00;;;;2070205;28;20686;-54
2022/09/25 04:04:00;;;;;;;4.18;1.73;;;;;20.50;100303.00;;;;2069896;28;20806;-54
2022/09/25 04:05:03;;;;;;;2.83;1.75;;;;;20.60;100303.00;;;;2074455;28;20224;-54
2022/09/25 04:06:03;;;;;;;2.65;1.42;;;;;20.50;100304.00;;;;2078241;28;20824;-54
2022/09/25 04:07:05;;;;;;;4.23;1.40;;;;;20.60;100301.00;;;;2078165;28;20360;-54
2022/09/25 04:08:05;;;;;;;3.38;1.55;;;;;20.60;100304.00;;;;2076791;28;20320;-54
2022/09/25 04:09:05;;;;;;;1.97;1.20;;;;;20.60;100312.00;;;;2077799;28;20422;-54
2022/09/25 04:10:06;;;;;;;3.93;1.57;;;;;20.60;100310.00;;;;2078116;28;20635;-53
2022/09/25 04:11:06;;;;;;;2.40;1.40;;;;;20.50;100304.00;;;;2078336;28;20608;-53
2022/09/25 04:12:07;;;;;;;2.50;1.40;;;;;20.50;100308.00;;;;2078159;28;20527;-54
2022/09/25 04:13:11;;;;;;;2.80;1.50;;;;;20.50;100307.00;;;;2078260;28;20213;-53
2022/09/25 04:14:11;;;;;;;2.20;1.23;;;;;20.60;100305.00;;;;2078031;28;21015;-54
2022/09/25 04:15:12;;;;;;;2.00;1.00;;;;;20.60;100307.00;;;;2078266;28;20240;-54
2022/09/25 04:16:13;;;;;;;4.27;1.60;;;;;20.50;100301.00;;;;2070157;28;20221;-54
2022/09/25 04:17:13;;;;;;;3.10;1.27;;;;;20.50;100305.00;;;;2069507;28;20690;-54
2022/09/25 04:18:14;;;;;;;1.97;1.10;;;;;20.50;100301.00;;;;2069606;28;20218;-54
2022/09/25 04:19:14;;;;;;;1.40;1.13;;;;;20.60;100309.00;;;;2070196;28;20276;-54
2022/09/25 04:20:15;;;;;;;2.27;1.33;;;;;20.50;100308.00;;;;2069944;28;20587;-54
2022/09/25 04:21:15;;;;;;;2.60;1.47;;;;;20.50;100307.00;;;;2070363;28;20215;-55
2022/09/25 04:22:16;;;;;;;1.70;1.10;;;;;20.50;100304.00;;;;2069447;28;20210;-53
2022/09/25 04:23:16;;;;;;;2.30;1.10;;;;;20.50;100298.00;;;;2069248;28;20233;-54
2022/09/25 04:25:35;;;;;;;2.30;1.35;;;;;20.50;100313.00;;;;2074006;28;20213;-54
2022/09/25 04:26:36;;;;;;;2.87;1.27;;;;;20.50;100304.00;;;;2071686;28;20690;-53
2022/09/25 04:27:36;;;;;;;2.40;1.30;;;;;20.50;100298.00;;;;2078150;28;20727;-53
2022/09/25 04:28:36;;;;;;;1.87;1.17;;;;;20.50;100297.00;;;;2078718;28;20243;-54
2022/09/25 04:29:37;;;;;;;2.87;1.30;;;;;20.50;100302.00;;;;2075002;28;20308;-53
2022/09/25 04:30:37;;;;;;;2.30;1.10;;;;;20.50;100301.00;;;;2071293;28;20261;-53
2022/09/25 04:31:38;;;;;;;3.33;1.37;;;;;20.50;100301.00;;;;2075025;28;20417;-54
2022/09/25 04:33:57;;;;;;;2.63;1.40;;;;;20.50;100297.00;;;;2074760;28;20289;-54
2022/09/25 04:34:57;;;;;;;2.50;1.13;;;;;20.50;100299.00;;;;2075135;28;20214;-54
2022/09/25 04:35:58;;;;;;;3.03;1.23;;;;;20.50;100297.00;;;;2070809;28;20229;-53
2022/09/25 04:36:58;;;;;;;3.77;1.13;;;;;20.50;100295.00;;;;2074127;28;20705;-53
2022/09/25 04:37:59;;;;;;;2.60;1.27;;;;;20.50;100296.00;;;;2069296;28;20598;-53
2022/09/25 04:38:59;;;;;;;2.00;1.23;;;;;20.50;100304.00;;;;2074244;28;20779;-54
2022/09/25 04:39:59;;;;;;;1.70;1.17;;;;;20.50;100299.00;;;;2074151;28;20707;-54
2022/09/25 04:41:00;;;;;;;1.60;1.07;;;;;20.50;100308.00;;;;2070344;28;20737;-53
2022/09/25 04:42:00;;;;;;;1.50;1.00;;;;;20.50;100304.00;;;;2070541;28;20449;-54
2022/09/25 04:43:02;;;;;;;2.50;0.90;;;;;20.50;100304.00;;;;2076754;28;20224;-54
2022/09/25 04:44:04;;;;;;;1.70;1.17;;;;;20.50;100308.00;;;;2074957;28;20244;-54
2022/09/25 04:45:04;;;;;;;3.13;1.10;;;;;20.50;100306.00;;;;2078058;28;20210;-54
2022/09/25 04:46:06;;;;;;;1.90;1.10;;;;;20.50;100311.00;;;;2078468;28;20237;-54
2022/09/25 04:47:06;;;;;;;1.70;1.10;;;;;20.50;100315.00;;;;2074386;28;20221;-54
2022/09/25 04:48:06;;;;;;;2.73;1.20;;;;;20.50;100313.00;;;;2077142;28;20214;-54
2022/09/25 04:49:07;;;;;;;1.87;1.00;;;;;20.50;100307.00;;;;2078023;28;20260;-54
2022/09/25 04:50:07;;;;;;;1.53;1.03;;;;;20.50;100306.00;;;;2070877;28;20228;-54
2022/09/25 04:51:08;;;;;;;3.17;1.10;;;;;20.50;100309.00;;;;2070892;28;20222;-53
2022/09/25 04:52:10;;;;;;;1.43;0.90;;;;;20.50;100305.00;;;;2073974;28;20229;-53
2022/09/25 04:53:11;;;;;;;2.30;1.23;;;;;20.50;100301.00;;;;2073495;28;20214;-54
2022/09/25 04:54:13;;;;;;;2.77;1.17;;;;;20.50;100309.00;;;;2070107;28;20312;-54
2022/09/25 04:55:15;;;;;;;2.28;1.02;;;;;20.50;100311.00;;;;2073397;28;20309;-54
2022/09/25 04:56:16;;;;;;;2.05;1.00;;;;;20.50;100310.00;;;;2075091;28;20283;-53
2022/09/25 04:57:17;;;;;;;2.10;1.10;;;;;20.50;100308.00;;;;2077956;28;20243;-52
2022/09/25 04:58:18;;;;;;;2.35;1.17;;;;;20.50;100315.00;;;;2077058;28;20344;-54
2022/09/25 04:59:18;;;;;;;2.97;1.33;;;;;20.50;100311.00;;;;2079017;28;20284;-54
2022/09/25 05:00:19;;;;;;;1.63;0.93;;;;;20.50;100301.00;;;;2071085;28;20282;-54
2022/09/25 05:01:19;;;;;;;3.40;1.10;;;;;20.50;100313.00;;;;2076016;28;20213;-53
2022/09/25 05:02:19;;;;;;;2.00;0.90;;;;;20.50;100309.00;;;;2079096;28;20617;-54
2022/09/25 05:03:20;;;;;;;3.47;1.00;;;;;20.50;100310.00;;;;2078948;28;20688;-54
2022/09/25 05:04:20;;;;;;;1.87;1.10;;;;;20.50;100300.00;;;;2075645;28;20224;-54
2022/09/25 05:05:20;;;;;;;2.00;1.00;;;;;20.50;100306.00;;;;2074447;28;20210;-55
2022/09/25 05:06:21;;;;;;;1.37;0.90;;;;;20.50;100306.00;;;;2071306;28;20240;-55
2022/09/25 05:07:22;;;;;;;1.77;1.20;;;;;20.60;100299.00;;;;2069732;28;20220;-55
2022/09/25 05:08:22;;;;;;;1.40;1.00;;;;;20.60;100309.00;;;;2070808;28;20233;-55
2022/09/25 05:09:22;;;;;;;3.10;1.63;;;;;20.60;100309.00;;;;2071132;28;20234;-55
2022/09/25 05:10:26;;;;;;;2.57;1.13;;;;;20.60;100302.00;;;;2070267;28;20233;-55
2022/09/25 05:11:26;;;;;;;2.63;1.00;;;;;20.60;100307.00;;;;2070280;28;20248;-55
2022/09/25 05:12:27;;;;;;;3.20;1.37;;;;;20.60;100302.00;;;;2070794;28;20210;-55
2022/09/25 05:13:27;;;;;;;1.47;0.80;;;;;20.60;100304.00;;;;2075125;28;20463;-55
2022/09/25 05:14:29;;;;;;;3.10;1.50;;;;;20.70;100304.00;;;;2077838;28;20243;-56
2022/09/25 05:15:31;;;;;;;7.30;2.50;;;;;20.70;100307.00;;;;2077428;28;20229;-53
2022/09/25 05:16:32;;;;;;;6.80;4.30;;;;;20.70;100299.00;;;;2074014;28;20218;-54
2022/09/25 05:17:32;;;;;;;19.17;11.70;;;;;20.80;100310.00;;;;2072427;28;20655;-54
2022/09/25 05:18:32;;;;;;;41.30;23.77;;;;;20.80;100302.00;;;;2070602;28;20215;-54
2022/09/25 05:19:34;;;;;;;50.70;31.50;;;;;20.80;100308.00;;;;2070772;28;20207;-54
2022/09/25 05:20:35;;;;;;;62.55;40.60;;;;;20.80;100306.00;;;;2071872;28;20752;-54
2022/09/25 05:21:35;;;;;;;48.83;32.67;;;;;20.80;100316.00;;;;2071972;28;20218;-54
2022/09/25 05:22:35;;;;;;;50.97;33.50;;;;;20.80;100303.00;;;;2071549;28;20219;-53